sensor_id;sensor_type;location;lat;lon;timestamp;pressure;altitude;pressure_sealevel;temperature;humidity
44198;BME280;30157;55.512;37.764;2023-05-31T00:00:46;99545.56;;;11.51;69.29
44198;BME280;30157;55.512;37.764;2023-05-31T00:03:12;99593.75;;;11.78;69.43
44198;BME280;30157;55.512;37.764;2023-05-31T00:05:38;99589.47;;;11.72;69.81
44198;BME280;30157;55.512;37.764;2023-05-31T00:08:04;99598.06;;;11.77;69.89
44198;BME280;30157;55.512;37.764;2023-05-31T00:10:30;99559.34;;;11.56;70.02
44198;BME280;30157;55.512;37.764;2023-05-31T00:12:56;99584.34;;;11.66;70.16
44198;BME280;30157;55.512;37.764;2023-05-31T00:15:21;99592.97;;;11.71;70.26
44198;BME280;30157;55.512;37.764;2023-05-31T00:17:47;99489.81;;;11.06;70.25
44198;BME280;30157;55.512;37.764;2023-05-31T00:20:13;99537.09;;;11.35;70.36
44198;BME280;30157;55.512;37.764;2023-05-31T00:22:38;99592.88;;;11.76;70.15
44198;BME280;30157;55.512;37.764;2023-05-31T00:25:04;99605.00;;;11.77;69.84
44198;BME280;30157;55.512;37.764;2023-05-31T00:27:30;99611.06;;;11.77;69.70
44198;BME280;30157;55.512;37.764;2023-05-31T00:29:56;99611.00;;;11.84;69.80
44198;BME280;30157;55.512;37.764;2023-05-31T00:32:22;99581.63;;;11.75;69.53
44198;BME280;30157;55.512;37.764;2023-05-31T00:34:47;99571.41;;;11.63;69.45
44198;BME280;30157;55.512;37.764;2023-05-31T00:37:13;99595.53;;;11.73;69.64
44198;BME280;30157;55.512;37.764;2023-05-31T00:39:39;99592.28;;;11.57;69.91
44198;BME280;30157;55.512;37.764;2023-05-31T00:42:05;99600.94;;;11.56;70.23
44198;BME280;30157;55.512;37.764;2023-05-31T00:44:31;99619.81;;;11.72;70.22
44198;BME280;30157;55.512;37.764;2023-05-31T00:46:57;99618.78;;;11.84;69.98
44198;BME280;30157;55.512;37.764;2023-05-31T00:49:23;99607.41;;;11.96;69.65
44198;BME280;30157;55.512;37.764;2023-05-31T00:51:52;99469.81;;;11.15;69.31
44198;BME280;30157;55.512;37.764;2023-05-31T00:54:18;99611.66;;;12.01;69.18
44198;BME280;30157;55.512;37.764;2023-05-31T00:56:44;99627.25;;;12.01;69.58
44198;BME280;30157;55.512;37.764;2023-05-31T00:59:10;99570.50;;;11.67;69.85
44198;BME280;30157;55.512;37.764;2023-05-31T01:01:37;99581.63;;;11.75;69.98
44198;BME280;30157;55.512;37.764;2023-05-31T01:04:03;99616.03;;;11.98;70.01
44198;BME280;30157;55.512;37.764;2023-05-31T01:06:30;99601.25;;;12.01;70.00
44198;BME280;30157;55.512;37.764;2023-05-31T01:09:07;99591.59;;;12.09;69.71
44198;BME280;30157;55.512;37.764;2023-05-31T01:11:49;99612.97;;;12.30;69.67
44198;BME280;30157;55.512;37.764;2023-05-31T01:14:19;99601.47;;;12.43;69.28
44198;BME280;30157;55.512;37.764;2023-05-31T01:16:52;99590.09;;;12.51;68.96
44198;BME280;30157;55.512;37.764;2023-05-31T01:19:36;99563.44;;;12.36;68.82
44198;BME280;30157;55.512;37.764;2023-05-31T01:27:40;99583.69;;;12.70;68.29
44198;BME280;30157;55.512;37.764;2023-05-31T01:30:09;99575.94;;;12.67;68.10
44198;BME280;30157;55.512;37.764;2023-05-31T01:32:36;99520.97;;;12.33;68.60
44198;BME280;30157;55.512;37.764;2023-05-31T01:35:02;99594.03;;;12.73;68.25
44198;BME280;30157;55.512;37.764;2023-05-31T01:37:30;99594.94;;;12.72;68.44
44198;BME280;30157;55.512;37.764;2023-05-31T01:39:56;99508.22;;;12.19;68.37
44198;BME280;30157;55.512;37.764;2023-05-31T01:42:22;99594.16;;;12.67;68.46
44198;BME280;30157;55.512;37.764;2023-05-31T01:44:49;99588.09;;;12.65;68.37
44198;BME280;30157;55.512;37.764;2023-05-31T01:47:17;99531.31;;;12.36;68.38
44198;BME280;30157;55.512;37.764;2023-05-31T01:49:44;99576.81;;;12.66;68.41
44198;BME280;30157;55.512;37.764;2023-05-31T01:52:14;99566.50;;;12.62;68.31
44198;BME280;30157;55.512;37.764;2023-05-31T01:54:40;99593.19;;;12.73;68.44
44198;BME280;30157;55.512;37.764;2023-05-31T01:57:07;99597.59;;;12.71;68.48
44198;BME280;30157;55.512;37.764;2023-05-31T01:59:36;99552.81;;;12.49;68.44
44198;BME280;30157;55.512;37.764;2023-05-31T02:02:04;99592.34;;;12.72;68.36
44198;BME280;30157;55.512;37.764;2023-05-31T02:04:31;99595.84;;;12.70;68.10
44198;BME280;30157;55.512;37.764;2023-05-31T02:06:57;99590.72;;;12.65;68.27
44198;BME280;30157;55.512;37.764;2023-05-31T02:09:24;99583.00;;;12.60;68.23
44198;BME280;30157;55.512;37.764;2023-05-31T02:11:50;99613.97;;;12.76;68.18
44198;BME280;30157;55.512;37.764;2023-05-31T02:14:16;99607.84;;;12.78;67.89
44198;BME280;30157;55.512;37.764;2023-05-31T02:16:42;99603.47;;;12.81;68.00
44198;BME280;30157;55.512;37.764;2023-05-31T02:19:08;99605.09;;;12.88;68.20
44198;BME280;30157;55.512;37.764;2023-05-31T02:21:34;99596.28;;;12.95;67.30
44198;BME280;30157;55.512;37.764;2023-05-31T02:24:03;99597.09;;;12.97;67.35
44198;BME280;30157;55.512;37.764;2023-05-31T02:26:29;99569.50;;;12.88;67.27
44198;BME280;30157;55.512;37.764;2023-05-31T02:28:57;99589.34;;;12.94;67.26
44198;BME280;30157;55.512;37.764;2023-05-31T02:31:23;99542.97;;;12.66;67.16
44198;BME280;30157;55.512;37.764;2023-05-31T02:33:48;99596.06;;;13.07;66.87
44198;BME280;30157;55.512;37.764;2023-05-31T02:36:15;99589.97;;;13.07;66.70
44198;BME280;30157;55.512;37.764;2023-05-31T02:38:44;99608.03;;;13.16;66.77
44198;BME280;30157;55.512;37.764;2023-05-31T02:41:12;99600.22;;;13.16;66.56
44198;BME280;30157;55.512;37.764;2023-05-31T02:43:38;99601.06;;;13.18;66.57
44198;BME280;30157;55.512;37.764;2023-05-31T02:46:04;99595.84;;;13.18;66.59
44198;BME280;30157;55.512;37.764;2023-05-31T02:48:31;99604.50;;;13.20;66.68
44198;BME280;30157;55.512;37.764;2023-05-31T02:50:58;99582.97;;;13.10;66.33
44198;BME280;30157;55.512;37.764;2023-05-31T02:53:43;99534.75;;;12.88;65.99
44198;BME280;30157;55.512;37.764;2023-05-31T02:56:14;99606.81;;;13.37;65.99
44198;BME280;30157;55.512;37.764;2023-05-31T02:58:50;99604.09;;;13.42;65.90
44198;BME280;30157;55.512;37.764;2023-05-31T03:01:27;99616.03;;;13.54;65.81
44198;BME280;30157;55.512;37.764;2023-05-31T03:04:06;99618.47;;;13.63;65.22
44198;BME280;30157;55.512;37.764;2023-05-31T03:06:34;99619.81;;;13.81;65.12
44198;BME280;30157;55.512;37.764;2023-05-31T03:09:01;99607.56;;;13.85;64.55
44198;BME280;30157;55.512;37.764;2023-05-31T03:11:29;99607.41;;;13.92;64.43
44198;BME280;30157;55.512;37.764;2023-05-31T03:13:56;99619.34;;;14.04;64.22
44198;BME280;30157;55.512;37.764;2023-05-31T03:16:23;99611.47;;;14.06;64.48
44198;BME280;30157;55.512;37.764;2023-05-31T03:18:50;99558.91;;;13.84;63.59
44198;BME280;30157;55.512;37.764;2023-05-31T03:21:17;99615.41;;;14.24;63.47
44198;BME280;30157;55.512;37.764;2023-05-31T03:23:43;99610.78;;;14.37;62.82
44198;BME280;30157;55.512;37.764;2023-05-31T03:26:09;99566.75;;;14.21;62.79
44198;BME280;30157;55.512;37.764;2023-05-31T03:28:35;99622.91;;;14.75;62.16
44198;BME280;30157;55.512;37.764;2023-05-31T03:31:02;99615.97;;;14.74;61.89
44198;BME280;30157;55.512;37.764;2023-05-31T03:33:28;99623.19;;;14.99;61.91
44198;BME280;30157;55.512;37.764;2023-05-31T03:35:54;99628.38;;;15.01;61.72
44198;BME280;30157;55.512;37.764;2023-05-31T03:38:20;99634.47;;;15.00;61.82
44198;BME280;30157;55.512;37.764;2023-05-31T03:40:46;99537.50;;;14.44;62.31
44198;BME280;30157;55.512;37.764;2023-05-31T03:43:14;99575.28;;;14.66;62.46
44198;BME280;30157;55.512;37.764;2023-05-31T03:45:41;99629.63;;;14.86;62.87
44198;BME280;30157;55.512;37.764;2023-05-31T03:48:07;99629.00;;;14.76;63.21
44198;BME280;30157;55.512;37.764;2023-05-31T03:50:33;99623.91;;;14.70;63.48
44198;BME280;30157;55.512;37.764;2023-05-31T03:53:02;99626.66;;;15.33;63.13
44198;BME280;30157;55.512;37.764;2023-05-31T03:55:27;99636.09;;;15.38;62.53
44198;BME280;30157;55.512;37.764;2023-05-31T03:57:53;99624.34;;;15.22;62.66
44198;BME280;30157;55.512;37.764;2023-05-31T04:00:19;99624.44;;;15.19;62.72
44198;BME280;30157;55.512;37.764;2023-05-31T04:02:50;99568.88;;;14.77;62.51
44198;BME280;30157;55.512;37.764;2023-05-31T04:05:16;99601.06;;;14.80;62.19
44198;BME280;30157;55.512;37.764;2023-05-31T04:07:43;99621.63;;;14.92;62.58
44198;BME280;30157;55.512;37.764;2023-05-31T04:10:09;99562.34;;;14.59;62.65
44198;BME280;30157;55.512;37.764;2023-05-31T04:12:35;99630.31;;;14.92;63.04
44198;BME280;30157;55.512;37.764;2023-05-31T04:15:01;99606.75;;;14.94;63.20
44198;BME280;30157;55.512;37.764;2023-05-31T04:17:31;99638.47;;;15.15;63.09
44198;BME280;30157;55.512;37.764;2023-05-31T04:19:56;99634.16;;;15.14;63.01
44198;BME280;30157;55.512;37.764;2023-05-31T04:22:22;99645.09;;;15.26;62.78
44198;BME280;30157;55.512;37.764;2023-05-31T04:24:50;99624.97;;;15.30;62.73
44198;BME280;30157;55.512;37.764;2023-05-31T04:27:22;99627.09;;;15.49;62.11
44198;BME280;30157;55.512;37.764;2023-05-31T04:29:51;99651.88;;;15.98;60.96
44198;BME280;30157;55.512;37.764;2023-05-31T04:32:18;99633.06;;;16.13;60.50
44198;BME280;30157;55.512;37.764;2023-05-31T04:34:47;99639.03;;;16.19;59.85
44198;BME280;30157;55.512;37.764;2023-05-31T04:37:14;99641.41;;;15.98;59.77
44198;BME280;30157;55.512;37.764;2023-05-31T04:39:40;99547.78;;;15.17;60.22
44198;BME280;30157;55.512;37.764;2023-05-31T04:42:06;99612.88;;;15.59;60.21
44198;BME280;30157;55.512;37.764;2023-05-31T04:44:38;99635.16;;;15.71;60.60
44198;BME280;30157;55.512;37.764;2023-05-31T04:47:04;99630.94;;;15.67;60.48
44198;BME280;30157;55.512;37.764;2023-05-31T04:49:30;99631.88;;;15.64;60.48
44198;BME280;30157;55.512;37.764;2023-05-31T04:51:57;99658.66;;;15.74;60.36
44198;BME280;30157;55.512;37.764;2023-05-31T04:54:24;99662.03;;;15.46;60.59
44198;BME280;30157;55.512;37.764;2023-05-31T04:56:50;99611.53;;;14.78;61.92
44198;BME280;30157;55.512;37.764;2023-05-31T04:59:17;99543.44;;;13.76;63.20
44198;BME280;30157;55.512;37.764;2023-05-31T05:01:43;99671.38;;;14.10;64.48
44198;BME280;30157;55.512;37.764;2023-05-31T05:04:14;99658.06;;;13.82;65.12
44198;BME280;30157;55.512;37.764;2023-05-31T05:06:40;99669.72;;;13.64;66.05
44198;BME280;30157;55.512;37.764;2023-05-31T05:09:07;99676.81;;;13.57;66.56
44198;BME280;30157;55.512;37.764;2023-05-31T05:11:35;99655.53;;;13.32;67.18
44198;BME280;30157;55.512;37.764;2023-05-31T05:14:01;99675.59;;;13.27;68.44
44198;BME280;30157;55.512;37.764;2023-05-31T05:16:28;99669.72;;;13.16;69.39
44198;BME280;30157;55.512;37.764;2023-05-31T05:18:55;99451.78;;;11.66;70.30
44198;BME280;30157;55.512;37.764;2023-05-31T05:21:22;99663.41;;;12.77;71.66
44198;BME280;30157;55.512;37.764;2023-05-31T05:23:48;99669.41;;;12.83;72.16
44198;BME280;30157;55.512;37.764;2023-05-31T05:26:14;99666.03;;;12.76;72.48
44198;BME280;30157;55.512;37.764;2023-05-31T05:28:41;99668.72;;;12.71;72.98
44198;BME280;30157;55.512;37.764;2023-05-31T05:31:07;99645.34;;;12.70;73.36
44198;BME280;30157;55.512;37.764;2023-05-31T05:33:36;99608.28;;;12.54;73.24
44198;BME280;30157;55.512;37.764;2023-05-31T05:36:03;99640.06;;;12.73;73.17
44198;BME280;30157;55.512;37.764;2023-05-31T05:38:31;99667.66;;;12.85;73.64
44198;BME280;30157;55.512;37.764;2023-05-31T05:40:57;99655.69;;;12.73;73.93
44198;BME280;30157;55.512;37.764;2023-05-31T05:43:23;99637.50;;;12.71;74.61
44198;BME280;30157;55.512;37.764;2023-05-31T05:46:02;99654.69;;;12.80;75.07
44198;BME280;30157;55.512;37.764;2023-05-31T05:48:28;99587.66;;;12.41;75.60
44198;BME280;30157;55.512;37.764;2023-05-31T05:50:54;99648.75;;;12.72;76.03
44198;BME280;30157;55.512;37.764;2023-05-31T05:53:20;99629.78;;;12.64;76.54
44198;BME280;30157;55.512;37.764;2023-05-31T05:55:53;99641.81;;;12.72;76.43
44198;BME280;30157;55.512;37.764;2023-05-31T05:58:23;99637.47;;;12.73;76.35
44198;BME280;30157;55.512;37.764;2023-05-31T06:01:15;99604.16;;;12.39;76.08
44198;BME280;30157;55.512;37.764;2023-05-31T06:03:55;99599.75;;;12.42;76.10
44198;BME280;30157;55.512;37.764;2023-05-31T06:06:23;99609.16;;;12.51;75.13
44198;BME280;30157;55.512;37.764;2023-05-31T06:08:51;99634.94;;;12.67;73.70
44198;BME280;30157;55.512;37.764;2023-05-31T06:11:17;99571.38;;;12.27;73.74
44198;BME280;30157;55.512;37.764;2023-05-31T06:13:44;99627.25;;;12.60;74.27
44198;BME280;30157;55.512;37.764;2023-05-31T06:16:13;99568.88;;;12.22;74.63
44198;BME280;30157;55.512;37.764;2023-05-31T06:18:39;99616.94;;;12.53;75.94
44198;BME280;30157;55.512;37.764;2023-05-31T06:21:06;99615.25;;;12.50;76.02
44198;BME280;30157;55.512;37.764;2023-05-31T06:23:43;99617.06;;;12.47;75.91
44198;BME280;30157;55.512;37.764;2023-05-31T06:26:14;99617.06;;;12.47;76.90
44198;BME280;30157;55.512;37.764;2023-05-31T06:28:40;99593.75;;;12.39;77.27
44198;BME280;30157;55.512;37.764;2023-05-31T06:31:16;99550.09;;;12.02;77.74
44198;BME280;30157;55.512;37.764;2023-05-31T06:33:43;99591.50;;;12.17;78.57
44198;BME280;30157;55.512;37.764;2023-05-31T06:36:10;99571.88;;;11.93;79.55
44198;BME280;30157;55.512;37.764;2023-05-31T06:38:36;99588.59;;;12.34;79.41
44198;BME280;30157;55.512;37.764;2023-05-31T06:41:02;99512.75;;;12.06;79.14
44198;BME280;30157;55.512;37.764;2023-05-31T06:43:28;99552.16;;;12.36;79.98
44198;BME280;30157;55.512;37.764;2023-05-31T06:45:59;99480.84;;;11.95;80.10
44198;BME280;30157;55.512;37.764;2023-05-31T06:48:25;99446.66;;;11.63;79.29
44198;BME280;30157;55.512;37.764;2023-05-31T06:51:11;99515.41;;;12.03;79.43
44198;BME280;30157;55.512;37.764;2023-05-31T06:54:09;99576.34;;;12.44;79.02
44198;BME280;30157;55.512;37.764;2023-05-31T06:56:37;99542.81;;;12.24;78.97
44198;BME280;30157;55.512;37.764;2023-05-31T06:59:02;99577.59;;;12.71;78.30
44198;BME280;30157;55.512;37.764;2023-05-31T07:01:28;99574.50;;;12.99;77.92
44198;BME280;30157;55.512;37.764;2023-05-31T07:03:54;99578.19;;;13.34;76.41
44198;BME280;30157;55.512;37.764;2023-05-31T07:06:20;99558.06;;;13.42;75.54
44198;BME280;30157;55.512;37.764;2023-05-31T07:08:46;99563.47;;;13.74;75.14
44198;BME280;30157;55.512;37.764;2023-05-31T07:11:44;99567.19;;;14.01;74.26
44198;BME280;30157;55.512;37.764;2023-05-31T07:14:10;99522.44;;;14.54;72.94
44198;BME280;30157;55.512;37.764;2023-05-31T07:16:36;99582.38;;;15.58;70.99
44198;BME280;30157;55.512;37.764;2023-05-31T07:19:02;99561.22;;;15.95;69.56
44198;BME280;30157;55.512;37.764;2023-05-31T07:21:29;99568.50;;;17.43;65.79
44198;BME280;30157;55.512;37.764;2023-05-31T07:23:55;99569.03;;;19.26;60.00
44198;BME280;30157;55.512;37.764;2023-05-31T07:26:22;99508.41;;;19.48;56.60
44198;BME280;30157;55.512;37.764;2023-05-31T07:28:48;99573.06;;;19.54;56.13
44198;BME280;30157;55.512;37.764;2023-05-31T07:31:14;99536.78;;;18.81;56.55
44198;BME280;30157;55.512;37.764;2023-05-31T07:33:43;99564.44;;;19.88;54.65
44198;BME280;30157;55.512;37.764;2023-05-31T07:36:08;99575.06;;;20.95;52.15
44198;BME280;30157;55.512;37.764;2023-05-31T07:38:34;99574.84;;;20.82;51.71
44198;BME280;30157;55.512;37.764;2023-05-31T07:41:01;99539.56;;;21.18;48.53
44198;BME280;30157;55.512;37.764;2023-05-31T07:43:27;99580.19;;;22.45;45.56
44198;BME280;30157;55.512;37.764;2023-05-31T07:45:56;99572.53;;;22.85;43.63
44198;BME280;30157;55.512;37.764;2023-05-31T07:48:23;99562.28;;;22.02;43.94
44198;BME280;30157;55.512;37.764;2023-05-31T07:50:50;99574.72;;;21.19;45.25
44198;BME280;30157;55.512;37.764;2023-05-31T07:53:16;99577.78;;;21.60;44.89
44198;BME280;30157;55.512;37.764;2023-05-31T07:55:42;99523.91;;;21.31;45.04
44198;BME280;30157;55.512;37.764;2023-05-31T07:58:09;99570.31;;;20.67;46.26
44198;BME280;30157;55.512;37.764;2023-05-31T08:00:38;99521.03;;;19.40;48.14
44198;BME280;30157;55.512;37.764;2023-05-31T08:03:04;99570.22;;;18.98;49.83
44198;BME280;30157;55.512;37.764;2023-05-31T08:05:31;99543.34;;;18.28;51.66
44198;BME280;30157;55.512;37.764;2023-05-31T08:07:57;99574.75;;;19.55;49.07
44198;BME280;30157;55.512;37.764;2023-05-31T08:10:23;99554.28;;;20.89;47.74
44198;BME280;30157;55.512;37.764;2023-05-31T08:12:49;99520.81;;;20.73;47.66
44198;BME280;30157;55.512;37.764;2023-05-31T08:15:15;99564.94;;;21.54;46.89
44198;BME280;30157;55.512;37.764;2023-05-31T08:17:40;99557.22;;;20.83;47.14
44198;BME280;30157;55.512;37.764;2023-05-31T08:20:10;99556.03;;;19.99;47.54
44198;BME280;30157;55.512;37.764;2023-05-31T08:22:36;99539.44;;;19.21;48.71
44198;BME280;30157;55.512;37.764;2023-05-31T08:25:02;99561.66;;;18.72;49.13
44198;BME280;30157;55.512;37.764;2023-05-31T08:27:29;99561.03;;;18.24;49.62
44198;BME280;30157;55.512;37.764;2023-05-31T08:29:55;99563.00;;;17.73;51.41
44198;BME280;30157;55.512;37.764;2023-05-31T08:32:21;99560.16;;;17.32;52.23
44198;BME280;30157;55.512;37.764;2023-05-31T08:34:47;99562.28;;;16.97;53.23
44198;BME280;30157;55.512;37.764;2023-05-31T08:37:12;99563.19;;;16.69;53.95
44198;BME280;30157;55.512;37.764;2023-05-31T08:39:38;99545.94;;;16.37;54.85
44198;BME280;30157;55.512;37.764;2023-05-31T08:42:09;99553.09;;;16.03;55.52
44198;BME280;30157;55.512;37.764;2023-05-31T08:44:36;99503.34;;;15.46;56.24
44198;BME280;30157;55.512;37.764;2023-05-31T08:47:15;99521.59;;;15.48;57.07
44198;BME280;30157;55.512;37.764;2023-05-31T08:49:44;99557.56;;;15.71;57.56
44198;BME280;30157;55.512;37.764;2023-05-31T08:52:10;99553.50;;;15.91;57.68
44198;BME280;30157;55.512;37.764;2023-05-31T08:54:37;99553.00;;;16.35;57.10
44198;BME280;30157;55.512;37.764;2023-05-31T08:57:03;99564.59;;;17.54;54.60
44198;BME280;30157;55.512;37.764;2023-05-31T08:59:30;99556.88;;;17.73;53.89
44198;BME280;30157;55.512;37.764;2023-05-31T09:01:57;99545.81;;;17.64;54.00
44198;BME280;30157;55.512;37.764;2023-05-31T09:04:25;99542.88;;;17.26;54.00
44198;BME280;30157;55.512;37.764;2023-05-31T09:06:51;99555.59;;;16.87;54.75
44198;BME280;30157;55.512;37.764;2023-05-31T09:09:17;99554.38;;;16.46;55.50
44198;BME280;30157;55.512;37.764;2023-05-31T09:11:45;99556.09;;;16.19;57.15
44198;BME280;30157;55.512;37.764;2023-05-31T09:14:11;99543.97;;;15.88;58.89
44198;BME280;30157;55.512;37.764;2023-05-31T09:16:37;99563.25;;;15.56;60.47
44198;BME280;30157;55.512;37.764;2023-05-31T09:19:04;99563.84;;;15.34;62.28
44198;BME280;30157;55.512;37.764;2023-05-31T09:21:38;99548.72;;;15.14;63.19
44198;BME280;30157;55.512;37.764;2023-05-31T09:24:05;99557.69;;;15.05;63.93
44198;BME280;30157;55.512;37.764;2023-05-31T09:26:31;99570.50;;;14.82;64.61
44198;BME280;30157;55.512;37.764;2023-05-31T09:28:58;99572.91;;;14.55;66.73
44198;BME280;30157;55.512;37.764;2023-05-31T09:31:25;99574.53;;;14.24;68.04
44198;BME280;30157;55.512;37.764;2023-05-31T09:33:51;99557.78;;;13.95;69.00
44198;BME280;30157;55.512;37.764;2023-05-31T09:36:26;99585.03;;;13.82;69.72
44198;BME280;30157;55.512;37.764;2023-05-31T09:39:03;99589.81;;;13.61;69.72
44198;BME280;30157;55.512;37.764;2023-05-31T09:41:31;99548.25;;;13.10;70.01
44198;BME280;30157;55.512;37.764;2023-05-31T09:43:57;99594.94;;;13.21;70.56
44198;BME280;30157;55.512;37.764;2023-05-31T09:46:24;99560.84;;;12.86;70.87
44198;BME280;30157;55.512;37.764;2023-05-31T09:49:16;99551.69;;;12.64;71.05
44198;BME280;30157;55.512;37.764;2023-05-31T09:51:51;99527.16;;;12.27;71.61
44198;BME280;30157;55.512;37.764;2023-05-31T09:54:20;99549.72;;;12.26;72.07
44198;BME280;30157;55.512;37.764;2023-05-31T09:56:51;99615.22;;;12.52;72.60
44198;BME280;30157;55.512;37.764;2023-05-31T09:59:16;99591.34;;;12.25;72.90
44198;BME280;30157;55.512;37.764;2023-05-31T10:01:43;99625.13;;;12.30;72.93
44198;BME280;30157;55.512;37.764;2023-05-31T10:04:09;99563.38;;;11.80;72.98
44198;BME280;30157;55.512;37.764;2023-05-31T10:06:35;99628.09;;;12.03;73.31
44198;BME280;30157;55.512;37.764;2023-05-31T10:09:02;99620.50;;;11.83;73.77
44198;BME280;30157;55.512;37.764;2023-05-31T10:11:34;99631.78;;;11.84;73.88
44198;BME280;30157;55.512;37.764;2023-05-31T10:14:03;99610.50;;;11.52;74.00
44198;BME280;30157;55.512;37.764;2023-05-31T10:16:38;99585.78;;;11.19;75.76
44198;BME280;30157;55.512;37.764;2023-05-31T10:19:09;99590.19;;;11.10;76.73
44198;BME280;30157;55.512;37.764;2023-05-31T10:21:41;99657.56;;;11.26;77.55
44198;BME280;30157;55.512;37.764;2023-05-31T10:24:13;99550.06;;;10.54;78.42
44198;BME280;30157;55.512;37.764;2023-05-31T10:26:50;99623.16;;;11.05;78.64
44198;BME280;30157;55.512;37.764;2023-05-31T10:29:31;99664.44;;;11.32;78.84
44198;BME280;30157;55.512;37.764;2023-05-31T10:32:10;99606.00;;;10.90;78.50
44198;BME280;30157;55.512;37.764;2023-05-31T10:34:38;99587.94;;;10.76;78.43
44198;BME280;30157;55.512;37.764;2023-05-31T10:37:05;99634.25;;;11.23;77.64
44198;BME280;30157;55.512;37.764;2023-05-31T10:42:13;99591.53;;;11.46;76.11
44198;BME280;30157;55.512;37.764;2023-05-31T10:47:35;99599.84;;;11.72;75.04
44198;BME280;30157;55.512;37.764;2023-05-31T10:50:03;99659.75;;;12.35;75.16
44198;BME280;30157;55.512;37.764;2023-05-31T10:52:30;99651.66;;;12.55;74.52
44198;BME280;30157;55.512;37.764;2023-05-31T10:55:24;99650.53;;;12.70;73.98
44198;BME280;30157;55.512;37.764;2023-05-31T10:57:54;99635.06;;;12.60;73.02
44198;BME280;30157;55.512;37.764;2023-05-31T11:00:21;99604.13;;;12.40;73.58
44198;BME280;30157;55.512;37.764;2023-05-31T11:02:51;99481.44;;;11.53;73.69
44198;BME280;30157;55.512;37.764;2023-05-31T11:05:18;99653.41;;;12.53;73.65
44198;BME280;30157;55.512;37.764;2023-05-31T11:07:45;99630.88;;;12.50;73.53
44198;BME280;30157;55.512;37.764;2023-05-31T11:10:23;99663.63;;;12.64;72.72
44198;BME280;30157;55.512;37.764;2023-05-31T11:12:49;99621.50;;;12.40;71.82
44198;BME280;30157;55.512;37.764;2023-05-31T11:15:15;99608.41;;;12.44;72.85
44198;BME280;30157;55.512;37.764;2023-05-31T11:17:54;99650.38;;;12.79;72.16
44198;BME280;30157;55.512;37.764;2023-05-31T11:20:21;99660.66;;;12.87;71.28
44198;BME280;30157;55.512;37.764;2023-05-31T11:23:25;99674.28;;;13.03;71.37
44198;BME280;30157;55.512;37.764;2023-05-31T11:26:17;99688.94;;;13.08;70.98
44198;BME280;30157;55.512;37.764;2023-05-31T11:28:54;99658.28;;;12.73;69.47
44198;BME280;30157;55.512;37.764;2023-05-31T11:34:20;99663.75;;;12.56;71.07
44198;BME280;30157;55.512;37.764;2023-05-31T11:36:46;99662.00;;;12.58;70.76
44198;BME280;30157;55.512;37.764;2023-05-31T11:39:13;99641.53;;;12.35;70.70
44198;BME280;30157;55.512;37.764;2023-05-31T11:41:39;99695.88;;;12.56;71.47
44198;BME280;30157;55.512;37.764;2023-05-31T11:44:07;99636.78;;;12.01;70.03
44198;BME280;30157;55.512;37.764;2023-05-31T11:46:39;99696.44;;;12.15;69.54
44198;BME280;30157;55.512;37.764;2023-05-31T11:49:08;99686.22;;;12.01;69.86
44198;BME280;30157;55.512;37.764;2023-05-31T11:51:35;99701.78;;;12.05;69.58
44198;BME280;30157;55.512;37.764;2023-05-31T11:54:02;99682.03;;;11.86;69.02
44198;BME280;30157;55.512;37.764;2023-05-31T11:56:31;99659.66;;;11.74;69.12
44198;BME280;30157;55.512;37.764;2023-05-31T11:59:02;99704.31;;;12.08;68.53
44198;BME280;30157;55.512;37.764;2023-05-31T12:01:34;99716.53;;;12.02;68.86
44198;BME280;30157;55.512;37.764;2023-05-31T12:04:00;99718.25;;;12.04;69.28
44198;BME280;30157;55.512;37.764;2023-05-31T12:06:26;99687.19;;;11.90;68.37
44198;BME280;30157;55.512;37.764;2023-05-31T12:08:56;99564.22;;;11.09;67.95
44198;BME280;30157;55.512;37.764;2023-05-31T12:11:35;99710.63;;;11.86;68.23
44198;BME280;30157;55.512;37.764;2023-05-31T12:14:01;99696.00;;;11.79;68.40
44198;BME280;30157;55.512;37.764;2023-05-31T12:16:26;99668.34;;;11.73;68.08
44198;BME280;30157;55.512;37.764;2023-05-31T12:18:55;99713.81;;;12.13;67.25
44198;BME280;30157;55.512;37.764;2023-05-31T12:21:21;99586.34;;;11.44;67.05
44198;BME280;30157;55.512;37.764;2023-05-31T12:23:57;99710.03;;;12.35;66.81
44198;BME280;30157;55.512;37.764;2023-05-31T12:26:24;99715.28;;;12.34;66.41
44198;BME280;30157;55.512;37.764;2023-05-31T12:28:52;99712.84;;;12.21;65.67
44198;BME280;30157;55.512;37.764;2023-05-31T12:31:22;99725.97;;;12.12;66.08
44198;BME280;30157;55.512;37.764;2023-05-31T12:36:28;99602.03;;;11.35;66.44
44198;BME280;30157;55.512;37.764;2023-05-31T12:38:57;99716.63;;;11.97;66.70
44198;BME280;30157;55.512;37.764;2023-05-31T12:41:23;99714.94;;;11.91;66.88
44198;BME280;30157;55.512;37.764;2023-05-31T12:43:49;99700.38;;;11.73;66.72
44198;BME280;30157;55.512;37.764;2023-05-31T12:46:18;99612.59;;;11.21;67.04
44198;BME280;30157;55.512;37.764;2023-05-31T12:48:47;99695.25;;;11.69;67.26
44198;BME280;30157;55.512;37.764;2023-05-31T12:51:19;99709.91;;;11.74;67.14
44198;BME280;30157;55.512;37.764;2023-05-31T12:53:46;99644.50;;;11.34;67.48
44198;BME280;30157;55.512;37.764;2023-05-31T12:56:11;99717.69;;;11.76;67.66
44198;BME280;30157;55.512;37.764;2023-05-31T12:58:37;99721.13;;;11.80;67.74
44198;BME280;30157;55.512;37.764;2023-05-31T13:01:03;99719.41;;;11.77;67.60
44198;BME280;30157;55.512;37.764;2023-05-31T13:03:29;99715.16;;;11.68;68.54
44198;BME280;30157;55.512;37.764;2023-05-31T13:05:54;99653.25;;;11.25;68.65
44198;BME280;30157;55.512;37.764;2023-05-31T13:08:20;99720.38;;;11.68;69.00
44198;BME280;30157;55.512;37.764;2023-05-31T13:10:46;99715.25;;;11.62;69.36
44198;BME280;30157;55.512;37.764;2023-05-31T13:13:11;99722.03;;;11.72;69.52